Time;durP1;ratioP1;P1;durP2;ratioP2;P2;SDS_P1;SDS_P2;PMS_P1;PMS_P2;Temp;Humidity;BMP_temperature;BMP_pressure;BME280_temperature;BME280_humidity;BME280_pressure;Samples;Min_cycle;Max_cycle;Signal;HPM_P1;HPM_P2
2022/10/04 00:00:36;;;;;;;1.60;1.37;;;;;;;17.05;47.46;101176.27;1541626;92;21131;-50
2022/10/04 00:03:20;;;;;;;3.25;1.80;;;;;;;17.01;47.42;101179.95;1528541;92;21070;-50
2022/10/04 00:05:51;;;;;;;1.65;1.30;;;;;;;16.95;47.37;101173.17;1494162;94;21123;-50
2022/10/04 00:08:38;;;;;;;1.27;1.17;;;;;;;16.91;47.30;101173.36;1508614;94;21159;-50
2022/10/04 00:11:16;;;;;;;1.15;1.07;;;;;;;16.85;47.33;101177.10;1511362;92;21648;-50
2022/10/04 00:13:51;;;;;;;1.80;0.80;;;;;;;16.83;47.42;101185.96;1489172;94;21119;-50
2022/10/04 00:16:24;;;;;;;1.85;0.80;;;;;;;16.79;47.38;101197.52;1499475;94;21103;-51
2022/10/04 00:19:01;;;;;;;1.90;0.60;;;;;;;16.78;47.57;101202.36;1465122;95;21118;-51
2022/10/04 00:21:59;;;;;;;0.90;0.78;;;;;;;16.77;47.53;101199.34;1490577;93;21190;-51
2022/10/04 00:24:31;;;;;;;1.10;1.00;;;;;;;16.76;47.45;101213.39;1478272;95;21213;-50
2022/10/04 00:27:12;;;;;;;0.65;0.65;;;;;;;16.74;47.47;101218.72;1475392;95;21103;-50
2022/10/04 00:29:41;;;;;;;0.53;0.50;;;;;;;16.74;47.58;101217.85;1487472;91;21697;-50
2022/10/04 00:32:16;;;;;;;2.27;0.85;;;;;;;16.71;47.64;101210.11;1556780;90;21545;-51
2022/10/04 00:34:50;;;;;;;1.02;0.70;;;;;;;16.67;47.67;101208.52;1552156;90;21074;-50
2022/10/04 00:37:19;;;;;;;0.80;0.70;;;;;;;16.65;47.83;101205.09;1554414;90;21085;-50
2022/10/04 00:39:47;;;;;;;0.80;0.60;;;;;;;16.63;47.81;101209.56;1562544;90;21468;-50
2022/10/04 00:42:45;;;;;;;0.50;0.50;;;;;;;16.62;47.74;101205.20;1581169;89;21063;-50
2022/10/04 00:45:36;;;;;;;1.12;0.72;;;;;;;16.60;47.59;101207.90;1609654;86;21049;-50
2022/10/04 00:48:14;;;;;;;1.60;0.60;;;;;;;16.60;47.72;101217.55;1632093;86;21073;-50
2022/10/04 00:50:46;;;;;;;0.88;0.60;;;;;;;16.61;47.85;101221.91;1642523;86;21065;-50
2022/10/04 00:53:21;;;;;;;0.40;0.40;;;;;;;16.60;47.88;101239.42;1664046;85;21044;-50
2022/10/04 00:55:55;;;;;;;1.87;0.50;;;;;;;16.61;47.76;101229.78;1659407;84;21621;-50
2022/10/04 00:58:29;;;;;;;0.47;0.42;;;;;;;16.60;47.74;101239.42;1635044;86;21185;-50
2022/10/04 01:00:56;;;;;;;0.60;0.40;;;;;;;16.62;47.55;101241.98;1651065;85;21070;-50
2022/10/04 01:03:32;;;;;;;1.55;0.82;;;;;;;16.62;47.53;101240.67;1664459;84;21093;-50
2022/10/04 01:06:01;;;;;;;1.22;0.70;;;;;;;16.61;47.44;101241.61;1631452;86;21073;-50
2022/10/04 01:08:37;;;;;;;0.85;0.60;;;;;;;16.60;47.69;101234.63;1635869;86;21565;-50
2022/10/04 01:11:14;;;;;;;2.47;1.25;;;;;;;16.61;47.48;101241.61;1610255;86;21107;-50
2022/10/04 01:13:52;;;;;;;1.85;0.70;;;;;;;16.60;47.28;101231.55;1615856;87;21129;-50
2022/10/04 01:16:25;;;;;;;0.98;0.82;;;;;;;16.63;47.41;101231.89;1619172;87;21096;-50
2022/10/04 01:18:52;;;;;;;0.40;0.35;;;;;;;16.65;47.46;101227.44;1577157;89;21117;-50
2022/10/04 01:21:25;;;;;;;0.70;0.60;;;;;;;16.68;47.38;101223.35;1599447;88;21148;-50
2022/10/04 01:24:01;;;;;;;0.47;0.47;;;;;;;16.72;47.23;101231.52;1498998;95;21118;-50
2022/10/04 01:26:41;;;;;;;1.98;0.30;;;;;;;16.75;47.09;101235.34;1497413;94;21077;-51
2022/10/04 01:29:17;;;;;;;0.30;0.30;;;;;;;16.77;47.14;101238.77;1502753;94;21105;-50
2022/10/04 01:31:53;;;;;;;1.55;1.45;;;;;;;16.78;47.30;101244.41;1495635;94;21184;-50
2022/10/04 01:34:23;;;;;;;2.60;2.40;;;;;;;16.79;47.34;101250.95;1494112;94;21075;-50
2022/10/04 01:36:53;;;;;;;2.15;1.70;;;;;;;16.79;47.33;101244.83;1477740;96;21610;-50
2022/10/04 01:39:22;;;;;;;1.50;1.40;;;;;;;16.78;47.35;101245.72;1481038;96;21094;-50
2022/10/04 01:42:09;;;;;;;1.40;1.30;;;;;;;16.78;47.36;101243.09;1469954;96;21623;-50
2022/10/04 01:44:54;;;;;;;3.42;3.22;;;;;;;16.78;47.39;101245.72;1470555;96;21064;-51
2022/10/04 01:47:35;;;;;;;2.50;2.30;;;;;;;16.78;47.42;101250.98;1456471;97;21217;-51
2022/10/04 01:50:07;;;;;;;1.77;1.67;;;;;;;16.78;47.17;101258.86;1465512;96;21121;-52
2022/10/04 01:52:50;;;;;;;3.40;1.82;;;;;;;16.77;47.17;101261.11;1468417;97;21713;-51
2022/10/04 01:55:21;;;;;;;1.35;1.10;;;;;;;16.75;46.93;101261.63;1467032;96;21464;-51
2022/10/04 01:58:03;;;;;;;1.70;0.78;;;;;;;16.70;46.86;101267.06;1479943;96;21187;-51
2022/10/04 02:00:41;;;;;;;2.17;0.95;;;;;;;16.67;46.98;101268.95;1481173;96;21130;-51
2022/10/04 02:03:11;;;;;;;;;;;;;;;16.63;47.17;101272.62;1451136;97;21149;-52
2022/10/04 02:05:43;;;;;;;0.53;0.50;;;;;;;16.57;47.31;101270.23;1442276;98;20465;-51
2022/10/04 02:08:12;;;;;;;0.90;0.90;;;;;;;16.53;47.43;101276.48;1453991;98;21088;-51
2022/10/04 02:10:39;;;;;;;1.35;0.80;;;;;;;16.49;47.54;101282.73;1464132;97;21191;-51
2022/10/04 02:13:17;;;;;;;1.12;0.70;;;;;;;16.46;47.70;101284.18;1478030;96;21197;-51
2022/10/04 02:15:44;;;;;;;0.50;0.50;;;;;;;16.45;47.83;101287.70;1434414;97;21607;-51
2022/10/04 02:18:13;;;;;;;0.90;0.60;;;;;;;16.44;47.89;101289.50;1472605;97;21135;-52
2022/10/04 02:20:40;;;;;;;1.40;0.60;;;;;;;16.43;47.90;101288.22;1478646;96;21125;-52
2022/10/04 02:23:06;;;;;;;0.85;0.50;;;;;;;16.43;47.98;101284.28;1513968;93;21180;-51
2022/10/04 02:25:35;;;;;;;0.30;0.30;;;;;;;16.43;47.88;101293.47;1518546;93;21153;-51
2022/10/04 02:28:04;;;;;;;0.57;0.40;;;;;;;16.42;47.81;101300.97;1527039;94;21097;-51
2022/10/04 02:30:39;;;;;;;0.60;0.53;;;;;;;16.40;47.65;101294.91;1522650;92;21107;-51
2022/10/04 02:33:06;;;;;;;0.70;0.45;;;;;;;16.37;47.74;101293.25;1501807;94;21186;-51
2022/10/04 02:35:45;;;;;;;0.60;0.57;;;;;;;16.35;47.91;101295.53;1536484;92;21586;-51
2022/10/04 02:38:22;;;;;;;0.72;0.40;;;;;;;16.33;48.06;101299.98;1538691;92;21600;-52
2022/10/04 02:41:02;;;;;;;0.60;0.57;;;;;;;16.31;48.21;101301.36;1443458;97;21580;-53
2022/10/04 02:43:50;;;;;;;0.95;0.53;;;;;;;16.30;48.44;101304.44;1448515;97;21158;-51
2022/10/04 02:46:31;;;;;;;0.55;0.50;;;;;;;16.32;48.66;101303.53;1419953;99;21152;-52
2022/10/04 02:49:09;;;;;;;0.60;0.60;;;;;;;16.33;48.71;101315.73;1419503;100;21177;-51
2022/10/04 02:51:46;;;;;;;0.60;0.60;;;;;;;16.33;48.75;101315.73;1420691;100;21166;-51
2022/10/04 02:54:30;;;;;;;0.70;0.70;;;;;;;16.33;48.81;101317.05;1417193;100;21272;-51
2022/10/04 02:56:56;;;;;;;1.57;0.70;;;;;;;16.30;48.92;101321.50;1409065;101;21145;-51
2022/10/04 02:59:23;;;;;;;0.75;0.50;;;;;;;16.29;49.13;101326.37;1426581;97;21180;-51
2022/10/04 03:01:56;;;;;;;1.12;0.70;;;;;;;16.29;49.16;101325.51;1464482;95;21757;-51
2022/10/04 03:04:30;;;;;;;1.52;0.80;;;;;;;16.27;49.24;101332.13;1488833;95;21135;-51
2022/10/04 03:06:58;;;;;;;0.60;0.60;;;;;;;16.26;49.29;101329.09;1434628;99;21614;-52
2022/10/04 03:09:24;;;;;;;0.50;0.47;;;;;;;16.26;49.61;101332.17;1433842;98;21612;-51
2022/10/04 03:11:52;;;;;;;1.17;0.68;;;;;;;16.27;49.79;101338.70;1451176;96;21164;-51
2022/10/04 03:14:21;;;;;;;3.17;1.92;;;;;;;16.27;49.92;101345.27;1473569;95;21235;-51
2022/10/04 03:16:52;;;;;;;1.10;0.98;;;;;;;16.27;50.04;101347.03;1486132;95;21136;-52
2022/10/04 03:19:24;;;;;;;1.70;1.05;;;;;;;16.28;50.19;101347.41;1492071;94;21200;-51
2022/10/04 03:21:53;;;;;;;1.85;1.22;;;;;;;16.29;50.21;101348.69;1521549;92;21048;-51
2022/10/04 03:24:25;;;;;;;0.78;0.75;;;;;;;16.29;50.23;101357.88;1524513;92;21168;-51
2022/10/04 03:26:55;;;;;;;1.00;0.80;;;;;;;16.29;50.43;101357.02;1524018;92;21572;-52
2022/10/04 03:29:24;;;;;;;1.10;0.90;;;;;;;16.29;50.40;101365.77;1527703;92;21156;-51
2022/10/04 03:31:57;;;;;;;1.10;0.88;;;;;;;16.29;50.52;101367.52;1475383;95;21084;-51
2022/10/04 03:34:26;;;;;;;1.12;1.00;;;;;;;16.29;50.67;101365.77;1501135;93;21135;-52
2022/10/04 03:36:55;;;;;;;;;;;;;;;16.33;50.81;101377.45;1493608;92;21098;-53
2022/10/04 03:39:30;;;;;;;1.75;0.78;;;;;;;16.34;50.93;101383.13;1583713;89;20107;-52
2022/10/04 03:41:57;;;;;;;2.98;1.10;;;;;;;16.36;50.99;101387.87;1571894;89;21129;-51
2022/10/04 03:44:24;;;;;;;1.55;1.10;;;;;;;16.38;50.97;101384.73;1555080;91;21766;-51
2022/10/04 03:46:50;;;;;;;1.20;1.10;;;;;;;16.41;50.95;101389.86;1607432;87;21096;-52
2022/10/04 03:49:33;;;;;;;0.90;0.80;;;;;;;16.44;50.78;101395.02;1611288;87;21136;-51
2022/10/04 03:51:59;;;;;;;1.40;1.20;;;;;;;16.44;50.45;101392.39;1562037;90;21076;-51
2022/10/04 03:54:26;;;;;;;1.25;1.00;;;;;;;16.45;50.18;101392.77;1568425;90;21127;-52
2022/10/04 03:56:53;;;;;;;1.25;0.90;;;;;;;16.43;50.13;101398.54;1534051;91;21112;-53
2022/10/04 03:59:24;;;;;;;1.02;0.98;;;;;;;16.42;50.18;101396.84;1560518;90;21093;-52
2022/10/04 04:02:05;;;;;;;2.55;1.17;;;;;;;16.37;50.07;101398.76;1563530;90;21529;-51
2022/10/04 04:04:49;;;;;;;1.50;1.40;;;;;;;16.32;50.32;101395.45;1569737;90;21093;-51
2022/10/04 04:07:34;;;;;;;1.10;1.00;;;;;;;16.29;50.36;101398.59;1617110;87;21560;-52
2022/10/04 04:10:06;;;;;;;2.77;1.05;;;;;;;16.26;50.54;101398.69;1592334;89;21161;-51
2022/10/04 04:12:46;;;;;;;1.77;1.00;;;;;;;16.25;50.58;101398.30;1591571;89;21100;-51
2022/10/04 04:15:13;;;;;;;1.27;0.90;;;;;;;16.24;50.64;101395.70;1594236;89;21160;-52
2022/10/04 04:17:46;;;;;;;1.85;1.12;;;;;;;16.22;50.68;101398.39;1599982;89;21553;-51
2022/10/04 04:20:38;;;;;;;1.32;1.00;;;;;;;16.21;50.81;101400.63;1522612;93;21610;-51
2022/10/04 04:23:16;;;;;;;3.08;2.30;;;;;;;16.21;51.00;101415.52;1533258;92;21121;-51
2022/10/04 04:25:47;;;;;;;1.30;1.15;;;;;;;16.23;51.22;101425.52;1512478;94;21145;-52
2022/10/04 04:28:25;;;;;;;1.87;1.22;;;;;;;16.26;51.26;101426.70;1512104;94;21588;-52
2022/10/04 04:31:18;;;;;;;2.20;2.00;;;;;;;16.27;51.30;101433.24;1513216;94;21117;-51
2022/10/04 04:33:50;;;;;;;1.57;1.47;;;;;;;16.28;51.37;101436.25;1514556;94;21116;-51
2022/10/04 04:36:16;;;;;;;3.27;1.25;;;;;;;16.28;51.28;101436.70;1511953;93;21113;-51
2022/10/04 04:41:30;;;;;;;1.47;1.25;;;;;;;16.26;51.07;101443.77;1542460;92;21580;-51
2022/10/04 04:43:57;;;;;;;0.90;0.90;;;;;;;16.25;51.05;101442.94;1546990;92;21086;-51
2022/10/04 04:46:24;;;;;;;3.47;1.12;;;;;;;16.26;51.17;101447.27;1549010;89;21073;-51
2022/10/04 04:48:55;;;;;;;0.78;0.75;;;;;;;16.28;51.28;101449.38;1589838;89;21119;-51
2022/10/04 04:51:22;;;;;;;0.93;0.93;;;;;;;16.32;51.43;101455.86;1591691;89;21191;-51
2022/10/04 04:53:51;;;;;;;1.65;1.10;;;;;;;16.34;51.40;101460.60;1597045;89;21597;-51
2022/10/04 04:56:22;;;;;;;1.12;0.90;;;;;;;16.37;51.48;101457.41;1560735;91;21138;-51
2022/10/04 04:58:50;;;;;;;1.60;1.15;;;;;;;16.41;51.42;101465.58;1562296;90;21144;-51
2022/10/04 05:01:46;;;;;;;2.55;1.00;;;;;;;16.46;51.34;101470.69;1568329;90;21102;-51
2022/10/04 05:04:20;;;;;;;1.60;0.90;;;;;;;16.49;51.21;101472.77;1577581;89;21162;-51
2022/10/04 05:07:00;;;;;;;1.50;1.35;;;;;;;16.51;51.16;101470.09;1542034;91;21124;-51
2022/10/04 05:09:33;;;;;;;0.90;0.90;;;;;;;16.51;51.11;101474.03;1557275;90;21190;-51
2022/10/04 05:12:19;;;;;;;1.15;1.00;;;;;;;16.52;51.20;101478.39;1529132;92;21047;-51
2022/10/04 05:14:49;;;;;;;1.55;1.00;;;;;;;16.53;51.19;101482.27;1580991;88;21664;-52
2022/10/04 05:17:30;;;;;;;1.27;1.20;;;;;;;16.53;51.19;101481.40;1578410;89;21073;-51
2022/10/04 05:19:58;;;;;;;1.10;1.00;;;;;;;16.54;51.26;101487.07;1597994;88;21580;-52
2022/10/04 05:22:25;;;;;;;1.30;1.20;;;;;;;16.58;51.32;101492.17;1588084;89;21102;-53
2022/10/04 05:31:29;;;;;;;2.50;1.20;;;;;;;16.76;51.58;101502.48;1861798;74;27516;-53
2022/10/04 05:33:57;;;;;;;1.15;1.05;;;;;;;16.80;51.56;101509.34;1847720;75;21029;-51
2022/10/04 05:36:30;;;;;;;1.10;0.95;;;;;;;16.92;51.37;101508.91;1771695;80;20985;-50
2022/10/04 05:39:08;;;;;;;1.95;1.27;;;;;;;16.95;51.29;101513.62;1735415;82;22155;-50
2022/10/04 05:42:02;;;;;;;3.12;1.37;;;;;;;16.99;51.33;101519.62;1731427;82;21509;-52
2022/10/04 05:44:36;;;;;;;1.55;1.20;;;;;;;17.02;51.45;101519.04;1689950;85;21142;-52
2022/10/04 05:47:06;;;;;;;1.47;1.12;;;;;;;17.04;51.58;101526.89;1675889;85;21024;-52
2022/10/04 05:49:39;;;;;;;1.62;1.45;;;;;;;17.09;51.54;101535.46;1751317;82;21018;-51
2022/10/04 05:52:13;;;;;;;2.08;1.45;;;;;;;17.14;51.46;101541.42;1738981;82;21545;-51
2022/10/04 05:54:42;;;;;;;1.57;1.45;;;;;;;17.19;51.52;101542.09;1706369;83;21141;-51
2022/10/04 05:57:31;;;;;;;1.25;1.10;;;;;;;17.27;51.73;101547.94;1708758;83;21026;-51
2022/10/04 06:00:19;;;;;;;1.27;1.10;;;;;;;17.34;51.52;101549.44;1688569;84;21607;-51
2022/10/04 06:03:20;;;;;;;2.12;1.50;;;;;;;17.42;51.16;101555.27;1619871;88;21075;-52
2022/10/04 06:05:58;;;;;;;1.83;1.40;;;;;;;17.51;51.18;101557.61;1620070;88;21049;-51
2022/10/04 06:08:52;;;;;;;2.87;1.40;;;;;;;17.63;51.12;101549.24;1620113;88;21041;-51
2022/10/04 06:12:00;;;;;;;3.70;1.55;;;;;;;17.75;50.86;101559.30;1619841;87;21512;-52
2022/10/04 06:15:07;;;;;;;2.12;1.40;;;;;;;17.85;50.65;101563.28;1587108;90;21088;-51
2022/10/04 06:17:39;;;;;;;1.82;1.57;;;;;;;17.95;50.49;101567.72;1540692;93;21108;-52
2022/10/04 06:20:47;;;;;;;2.30;1.37;;;;;;;18.03;50.24;101575.34;1530725;93;21072;-51
2022/10/04 06:23:18;;;;;;;4.25;1.30;;;;;;;18.09;50.22;101577.73;1516138;94;21088;-51
2022/10/04 06:25:50;;;;;;;1.40;1.30;;;;;;;18.12;49.88;101576.27;1516455;95;21112;-51
2022/10/04 06:28:31;;;;;;;1.37;1.10;;;;;;;18.13;49.40;101577.55;1527774;94;21211;-51
2022/10/04 06:31:27;;;;;;;6.28;1.30;;;;;;;18.13;48.70;101581.51;1475749;96;21640;-50
2022/10/04 06:34:36;;;;;;;0.82;0.82;;;;;;;18.12;48.17;101581.55;1469164;96;21098;-53
2022/10/04 06:37:26;;;;;;;1.22;1.00;;;;;;;18.13;47.95;101591.17;1479491;95;21124;-50
2022/10/04 06:40:33;;;;;;;1.10;1.00;;;;;;;18.15;47.57;101595.92;1501714;95;21076;-50
2022/10/04 06:43:22;;;;;;;2.77;1.20;;;;;;;18.15;47.47;101591.97;1498603;96;21184;-50
2022/10/04 06:46:31;;;;;;;1.37;1.17;;;;;;;18.14;47.62;101602.09;1499433;96;21059;-52
2022/10/04 06:49:09;;;;;;;3.08;1.37;;;;;;;18.12;47.47;101602.62;1483861;95;21160;-52
2022/10/04 06:51:59;;;;;;;2.98;1.35;;;;;;;18.13;47.29;101602.58;1478292;95;21123;-51
2022/10/04 06:54:49;;;;;;;1.85;1.40;;;;;;;18.14;47.04;101610.00;1463920;97;21658;-52
2022/10/04 06:57:57;;;;;;;2.45;1.62;;;;;;;18.12;47.19;101611.38;1462032;97;21184;-51
2022/10/04 07:00:26;;;;;;;1.20;1.10;;;;;;;18.11;47.39;101619.36;1463915;97;21100;-51
2022/10/04 07:03:16;;;;;;;2.17;1.20;;;;;;;18.07;47.53;101623.89;1485041;95;21659;-53
2022/10/04 07:06:04;;;;;;;2.40;1.60;;;;;;;18.09;47.57;101629.09;1467306;96;21238;-50
2022/10/04 07:08:50;;;;;;;1.67;1.45;;;;;;;18.10;47.66;101625.52;1467175;96;21188;-51
2022/10/04 07:11:31;;;;;;;2.22;1.50;;;;;;;18.11;47.77;101628.12;1467121;97;21157;-51
2022/10/04 07:14:24;;;;;;;1.73;1.40;;;;;;;18.12;47.55;101635.54;1498041;93;21169;-51
2022/10/04 07:16:55;;;;;;;1.55;1.45;;;;;;;18.13;47.45;101639.91;1488806;96;21109;-51
2022/10/04 07:19:30;;;;;;;1.32;1.20;;;;;;;18.11;47.58;101641.74;1488746;95;21056;-51
2022/10/04 07:22:23;;;;;;;3.00;1.70;;;;;;;18.13;47.68;101643.86;1488690;95;21060;-52
2022/10/04 07:25:16;;;;;;;1.95;1.47;;;;;;;18.13;47.70;101642.09;1490214;95;21101;-52
2022/10/04 07:29:19;;;;;;;1.77;1.30;;;;;;;18.18;47.95;101641.43;1551518;91;21141;-51
2022/10/04 07:30:19;;;;;;;2.50;1.15;;;;;;;18.23;47.64;101643.89;1565359;91;21072;-52
2022/10/04 07:32:49;;;;;;;4.25;1.40;;;;;;;18.25;47.24;101642.05;1634359;86;21065;-52
2022/10/04 07:35:24;;;;;;;1.40;1.30;;;;;;;18.27;47.03;101636.27;1631076;86;21029;-52
2022/10/04 07:38:16;;;;;;;1.42;1.32;;;;;;;18.31;46.88;101639.17;1631522;86;21029;-52
2022/10/04 07:41:11;;;;;;;2.40;1.30;;;;;;;18.33;46.50;101643.92;1625447;87;21101;-52
2022/10/04 07:44:00;;;;;;;1.55;1.22;;;;;;;18.34;46.01;101643.86;1604846;87;21092;-52
2022/10/04 07:46:48;;;;;;;2.52;1.40;;;;;;;18.36;46.10;101641.19;1518953;94;21053;-52
2022/10/04 07:49:17;;;;;;;1.72;1.35;;;;;;;18.39;46.48;101643.68;1508246;95;21165;-52
2022/10/04 07:52:10;;;;;;;2.85;1.50;;;;;;;18.42;46.83;101642.26;1519155;94;21576;-53
2022/10/04 07:55:09;;;;;;;3.02;1.67;;;;;;;18.46;47.22;101642.56;1505644;95;21163;-53
2022/10/04 07:58:11;;;;;;;3.15;1.62;;;;;;;18.55;47.20;101643.49;1508416;91;21140;-52
2022/10/04 08:00:48;;;;;;;2.50;1.40;;;;;;;18.63;47.03;101640.08;1579671;91;21084;-52
2022/10/04 08:03:32;;;;;;;2.25;1.30;;;;;;;18.72;46.41;101631.81;1505529;94;21158;-52
2022/10/04 08:06:12;;;;;;;2.02;1.55;;;;;;;18.77;46.29;101624.58;1503072;94;21108;-52
2022/10/04 08:08:48;;;;;;;5.37;1.72;;;;;;;18.85;46.17;101634.34;1505890;94;21112;-52
2022/10/04 08:11:31;;;;;;;3.12;1.47;;;;;;;18.91;46.10;101634.53;1502054;94;21587;-52
2022/10/04 08:14:17;;;;;;;2.55;1.57;;;;;;;18.96;46.04;101634.73;1520763;92;21215;-53
2022/10/04 08:16:56;;;;;;;2.05;1.42;;;;;;;19.01;46.40;101634.09;1546745;91;21102;-53
2022/10/04 08:19:46;;;;;;;2.05;1.27;;;;;;;19.08;46.76;101639.48;1549045;93;21102;-52
2022/10/04 08:22:41;;;;;;;2.35;1.67;;;;;;;19.14;45.89;101637.06;1547352;90;21011;-53
2022/10/04 08:25:17;;;;;;;3.00;1.55;;;;;;;19.18;45.47;101639.50;1532984;93;21107;-51
2022/10/04 08:31:20;;;;;;;1.67;1.27;;;;;;;19.26;45.46;101641.34;1533570;92;21597;-52
2022/10/04 08:34:17;;;;;;;3.22;1.60;;;;;;;19.30;45.35;101640.28;1538828;91;21059;-52
2022/10/04 08:37:02;;;;;;;3.83;1.82;;;;;;;19.34;45.59;101635.30;1499903;94;21660;-52
2022/10/04 08:39:54;;;;;;;1.75;1.47;;;;;;;19.40;45.26;101628.89;1547519;91;21582;-52
2022/10/04 08:42:31;;;;;;;2.98;1.95;;;;;;;19.44;44.86;101631.33;1634814;83;21010;-52
2022/10/04 08:45:31;;;;;;;3.52;1.70;;;;;;;19.51;44.29;101638.97;1695763;83;21073;-52
2022/10/04 08:48:17;;;;;;;3.00;1.90;;;;;;;19.55;44.60;101648.47;1693102;83;21644;-51
2022/10/04 08:51:04;;;;;;;2.30;1.77;;;;;;;19.59;44.49;101647.41;1696546;83;21548;-52
2022/10/04 08:53:54;;;;;;;1.92;1.50;;;;;;;19.63;45.35;101645.88;1665739;85;21578;-52
2022/10/04 08:56:51;;;;;;;1.70;1.60;;;;;;;19.67;45.77;101655.84;1572210;90;21639;-52
2022/10/04 08:59:53;;;;;;;1.77;1.50;;;;;;;19.70;45.83;101653.91;1562950;90;21626;-51
2022/10/04 09:02:50;;;;;;;1.80;1.65;;;;;;;19.74;45.89;101657.28;1501888;93;21166;-53
2022/10/04 09:05:58;;;;;;;2.55;1.50;;;;;;;19.79;46.03;101657.92;1535716;93;21086;-52
2022/10/04 09:08:45;;;;;;;1.52;1.42;;;;;;;19.86;45.73;101658.05;1567023;90;21643;-52
2022/10/04 09:11:46;;;;;;;2.42;1.42;;;;;;;19.93;45.41;101658.14;1580503;90;21153;-52
2022/10/04 09:14:22;;;;;;;2.23;1.47;;;;;;;19.99;45.08;101664.48;1581462;90;21126;-52
2022/10/04 09:17:21;;;;;;;1.55;1.45;;;;;;;20.04;44.77;101665.12;1580625;90;21076;-52
2022/10/04 09:20:02;;;;;;;1.50;1.40;;;;;;;20.08;44.77;101668.01;1555263;91;21089;-52
2022/10/04 09:22:56;;;;;;;2.95;1.45;;;;;;;20.13;44.62;101668.66;1555767;90;21049;-52
2022/10/04 09:25:40;;;;;;;2.37;1.75;;;;;;;20.17;44.45;101675.52;1531827;93;21578;-52
2022/10/04 09:28:46;;;;;;;2.77;1.37;;;;;;;20.21;44.42;101677.12;1516304;93;21098;-52
2022/10/04 09:31:34;;;;;;;2.05;1.55;;;;;;;20.24;44.38;101677.83;1519209;93;21118;-53
2022/10/04 09:34:11;;;;;;;2.15;1.30;;;;;;;20.30;44.36;101681.95;1552428;91;21171;-52
2022/10/04 09:37:22;;;;;;;2.15;1.20;;;;;;;20.30;44.17;101680.63;1561989;91;21040;-52
2022/10/04 09:40:33;;;;;;;2.98;1.37;;;;;;;20.31;43.79;101683.68;1612316;87;21076;-51
2022/10/04 09:43:24;;;;;;;2.58;1.30;;;;;;;20.34;43.65;101674.76;1651543;86;21077;-52
2022/10/04 09:46:32;;;;;;;2.05;1.50;;;;;;;20.36;44.08;101676.38;1640157;87;21033;-52
2022/10/04 09:49:35;;;;;;;1.87;1.37;;;;;;;20.40;43.65;101677.11;1676336;83;21052;-52
2022/10/04 09:52:25;;;;;;;1.50;1.32;;;;;;;20.46;43.66;101680.32;1695746;83;21509;-52
2022/10/04 09:55:44;;;;;;;2.92;1.30;;;;;;;20.46;43.66;101680.32;1704451;83;21084;-52
2022/10/04 09:58:53;;;;;;;3.10;1.20;;;;;;;20.50;43.04;101681.89;1728523;81;21716;-52
2022/10/04 10:01:39;;;;;;;1.30;1.20;;;;;;;20.56;43.06;101678.08;1730878;81;21020;-52
2022/10/04 10:04:32;;;;;;;1.98;1.50;;;;;;;20.59;43.07;101683.20;1728365;81;21078;-51
2022/10/04 10:07:30;;;;;;;1.25;1.15;;;;;;;20.62;43.10;101677.33;1744021;81;21008;-52
2022/10/04 10:13:42;;;;;;;1.60;1.50;;;;;;;20.69;42.20;101689.30;1662254;86;21045;-52
2022/10/04 10:16:28;;;;;;;1.92;1.35;;;;;;;20.71;41.96;101695.37;1651084;86;22217;-52
2022/10/04 10:19:16;;;;;;;4.00;1.60;;;;;;;20.74;41.90;101693.91;1710596;83;21052;-52
2022/10/04 10:22:03;;;;;;;1.37;1.27;;;;;;;20.78;41.85;101695.47;1690233;83;21088;-51
2022/10/04 10:24:58;;;;;;;4.62;1.17;;;;;;;20.80;41.54;101700.22;1690903;84;21020;-50
2022/10/04 10:27:51;;;;;;;2.02;1.25;;;;;;;20.81;41.47;101708.53;1692197;84;21029;-51
2022/10/04 10:30:42;;;;;;;1.80;1.67;;;;;;;20.83;41.16;101702.73;1702026;82;21096;-52
2022/10/04 10:33:36;;;;;;;;;;;;;;;20.84;41.43;101703.11;1724338;82;21049;-51
2022/10/04 10:36:36;;;;;;;2.27;1.98;;;;;;;20.88;41.44;101703.80;1722118;82;20431;-52
2022/10/04 10:39:41;;;;;;;1.90;1.72;;;;;;;20.89;41.23;101698.45;1721267;82;21457;-51
2022/10/04 10:42:40;;;;;;;3.02;2.00;;;;;;;20.91;40.93;101703.20;1729254;82;21065;-51
2022/10/04 10:45:44;;;;;;;4.25;1.67;;;;;;;20.92;41.11;101699.61;1694239;83;21485;-51
2022/10/04 10:48:27;;;;;;;3.92;1.95;;;;;;;20.93;40.66;101702.66;1681283;84;21106;-51
2022/10/04 10:54:24;;;;;;;1.57;1.47;;;;;;;20.94;41.11;101704.36;1706720;82;21102;-51
2022/10/04 10:57:28;;;;;;;1.47;1.30;;;;;;;20.97;40.88;101701.58;1723677;83;21052;-51
2022/10/04 11:00:16;;;;;;;2.75;1.45;;;;;;;21.01;41.26;101709.75;1725685;83;21552;-51
2022/10/04 11:03:00;;;;;;;1.37;1.27;;;;;;;21.05;40.92;101710.48;1736375;81;21033;-50
2022/10/04 11:06:04;;;;;;;1.50;1.40;;;;;;;21.10;40.60;101708.93;1765954;79;21060;-51
2022/10/04 11:09:15;;;;;;;1.92;1.30;;;;;;;21.12;40.34;101707.06;1771004;79;21089;-50
2022/10/04 11:12:23;;;;;;;1.65;1.30;;;;;;;21.11;39.91;101711.50;1748245;80;21001;-52
2022/10/04 11:15:25;;;;;;;3.70;1.45;;;;;;;21.08;39.94;101710.80;1777414;79;21051;-51
2022/10/04 11:18:15;;;;;;;2.02;1.00;;;;;;;21.10;40.14;101714.22;1776729;79;21014;-52
2022/10/04 11:21:35;;;;;;;2.20;1.30;;;;;;;21.12;40.33;101712.36;1771644;79;21127;-51
2022/10/04 11:24:31;;;;;;;1.22;1.10;;;;;;;21.16;40.22;101720.53;1779153;79;21516;-52
2022/10/04 11:27:23;;;;;;;3.10;1.70;;;;;;;21.21;39.55;101722.00;1763043;79;21522;-53
2022/10/04 11:30:25;;;;;;;2.92;1.17;;;;;;;21.27;39.50;101711.11;1776093;79;20987;-51
2022/10/04 11:33:17;;;;;;;1.92;1.37;;;;;;;21.32;39.47;101710.41;1686433;84;21053;-52
2022/10/04 11:36:01;;;;;;;2.77;1.40;;;;;;;21.32;39.26;101711.74;1670554;84;21501;-51
2022/10/04 11:39:16;;;;;;;1.72;1.42;;;;;;;21.36;39.01;101715.08;1678208;84;21021;-52
2022/10/04 11:42:10;;;;;;;2.80;1.52;;;;;;;21.38;38.33;101722.47;1685764;84;21559;-52
2022/10/04 11:44:58;;;;;;;1.95;1.50;;;;;;;21.39;38.58;101722.88;1678619;84;21091;-51
2022/10/04 11:48:01;;;;;;;1.95;1.70;;;;;;;21.42;38.07;101725.35;1673600;84;21045;-52
2022/10/04 11:50:39;;;;;;;1.45;1.35;;;;;;;21.45;38.53;101725.21;1703502;82;21102;-51
2022/10/04 11:53:28;;;;;;;2.75;1.17;;;;;;;21.50;38.49;101728.46;1732211;81;21054;-52
2022/10/04 11:56:17;;;;;;;1.85;1.20;;;;;;;21.54;38.11;101733.98;1737467;81;21500;-52
2022/10/04 11:58:58;;;;;;;1.70;1.35;;;;;;;21.56;37.79;101740.06;1743861;81;20999;-52
2022/10/04 12:01:46;;;;;;;1.15;1.00;;;;;;;21.52;37.96;101735.86;1738484;81;21058;-51
2022/10/04 12:04:50;;;;;;;2.40;1.30;;;;;;;21.54;37.77;101739.28;1729826;81;21035;-51
2022/10/04 12:07:53;;;;;;;1.72;1.40;;;;;;;21.64;37.68;101741.38;1727724;81;21015;-50
2022/10/04 12:10:37;;;;;;;2.65;1.57;;;;;;;21.71;37.91;101741.92;1843809;75;21039;-50
2022/10/04 12:13:45;;;;;;;1.52;1.42;;;;;;;21.76;38.26;101745.20;1857282;75;21475;-49
2022/10/04 12:16:35;;;;;;;1.55;1.27;;;;;;;21.78;37.29;101745.48;1835108;75;20977;-52
2022/10/04 12:19:38;;;;;;;2.10;1.42;;;;;;;21.81;37.56;101740.08;1846687;75;21009;-52
2022/10/04 12:22:38;;;;;;;1.55;1.17;;;;;;;21.84;36.79;101740.39;1806282;79;21488;-52
2022/10/04 12:25:44;;;;;;;1.90;1.20;;;;;;;21.86;35.98;101742.48;1792103;79;21049;-52
2022/10/04 12:28:22;;;;;;;1.67;1.20;;;;;;;21.84;36.30;101740.39;1779966;79;21025;-52
2022/10/04 12:31:17;;;;;;;2.27;1.60;;;;;;;21.83;36.25;101749.26;1795431;79;21572;-51
2022/10/04 12:33:54;;;;;;;3.80;1.32;;;;;;;21.84;36.24;101744.36;1791776;78;21052;-51
2022/10/04 12:36:42;;;;;;;1.35;1.20;;;;;;;21.85;35.89;101754.01;1778755;79;21041;-51
2022/10/04 12:39:20;;;;;;;1.72;1.30;;;;;;;21.85;35.60;101750.03;1783272;79;21123;-51
2022/10/04 12:45:23;;;;;;;1.67;1.30;;;;;;;21.88;33.78;101761.81;1657174;85;21064;-51
2022/10/04 12:48:06;;;;;;;2.47;1.40;;;;;;;21.92;35.07;101756.73;1666906;85;21117;-52
2022/10/04 12:50:53;;;;;;;4.05;1.50;;;;;;;21.95;35.30;101761.02;1668991;85;21129;-52
2022/10/04 12:53:34;;;;;;;1.77;1.45;;;;;;;21.91;35.39;101762.95;1638534;87;21090;-52
2022/10/04 12:56:28;;;;;;;4.90;1.92;;;;;;;21.88;35.85;101760.48;1637296;87;21066;-50
2022/10/04 12:59:27;;;;;;;1.80;1.30;;;;;;;21.88;36.10;101757.83;1627471;87;21103;-51
2022/10/04 13:02:32;;;;;;;1.80;1.25;;;;;;;21.92;35.30;101767.34;1580242;90;21664;-50